createdAt,value
2022-10-02T00:00:18.603Z,23.80
2022-10-02T00:02:51.612Z,26.63
2022-10-02T00:05:24.182Z,25.60
2022-10-02T00:07:56.791Z,16.60
2022-10-02T00:10:31.100Z,24.20
2022-10-02T00:13:02.609Z,23.08
2022-10-02T00:15:33.064Z,17.10
2022-10-02T00:18:08.389Z,10.48
2022-10-02T00:20:43.739Z,12.82
2022-10-02T00:23:18.654Z,13.43
2022-10-02T00:25:52.667Z,14.25
2022-10-02T00:28:26.083Z,9.77
2022-10-02T00:31:25.901Z,17.40
2022-10-02T00:34:04.721Z,11.07
2022-10-02T00:36:45.457Z,10.90
2022-10-02T00:39:24.717Z,9.60
2022-10-02T00:42:19.908Z,9.25
2022-10-02T00:44:58.594Z,9.27
2022-10-02T00:47:39.586Z,8.82
2022-10-02T00:50:26.625Z,11.20
2022-10-02T00:53:06.867Z,11.27
2022-10-02T00:55:56.900Z,10.90
2022-10-02T00:58:44.008Z,9.98
2022-10-02T01:01:15.747Z,10.57
2022-10-02T01:03:44.839Z,12.07
2022-10-02T01:06:14.078Z,11.25
2022-10-02T01:08:41.738Z,11.68
2022-10-02T01:11:09.507Z,11.13
2022-10-02T01:13:37.065Z,12.55
2022-10-02T01:16:05.730Z,14.85
2022-10-02T01:18:33.365Z,15.45
2022-10-02T01:21:05.278Z,10.85
2022-10-02T01:23:42.211Z,9.70
2022-10-02T01:26:11.295Z,9.70
2022-10-02T01:28:39.034Z,10.38
2022-10-02T01:31:10.149Z,10.02
2022-10-02T01:33:41.521Z,14.98
2022-10-02T01:36:09.554Z,11.98
2022-10-02T01:38:37.836Z,9.18
2022-10-02T01:41:07.457Z,12.18
2022-10-02T01:43:39.452Z,8.27
2022-10-02T01:46:27.833Z,8.60
2022-10-02T01:49:06.671Z,10.75
2022-10-02T01:52:00.250Z,8.15
2022-10-02T01:54:41.576Z,11.38
2022-10-02T01:57:19.860Z,10.40
2022-10-02T02:00:03.208Z,12.18
2022-10-02T02:02:39.360Z,14.20
2022-10-02T02:05:12.343Z,14.85
2022-10-02T02:07:49.681Z,14.43
2022-10-02T02:10:23.803Z,11.85
2022-10-02T02:12:59.874Z,10.10
2022-10-02T02:15:34.431Z,7.78
2022-10-02T02:18:08.768Z,11.30
2022-10-02T02:20:44.545Z,7.90
2022-10-02T02:23:16.367Z,7.32
2022-10-02T02:25:48.708Z,11.32
2022-10-02T02:28:19.564Z,10.88
2022-10-02T02:30:52.197Z,8.88
2022-10-02T02:33:25.212Z,8.95
2022-10-02T02:35:57.444Z,11.30
2022-10-02T02:38:30.176Z,14.05
2022-10-02T02:41:00.885Z,15.10
2022-10-02T02:43:32.171Z,12.68
2022-10-02T02:46:08.090Z,16.35
2022-10-02T02:48:42.887Z,12.23
2022-10-02T02:51:15.370Z,14.95
2022-10-02T02:53:47.883Z,13.38
2022-10-02T02:56:20.557Z,13.40
2022-10-02T02:58:53.884Z,12.93
2022-10-02T03:01:22.887Z,16.38
2022-10-02T03:03:50.436Z,14.60
2022-10-02T03:06:33.308Z,14.80
2022-10-02T03:09:02.918Z,14.50
2022-10-02T03:11:42.868Z,14.52
2022-10-02T03:14:31.145Z,15.48
2022-10-02T03:17:08.760Z,15.60
2022-10-02T03:19:44.027Z,16.02
2022-10-02T03:22:16.574Z,14.70
2022-10-02T03:24:50.623Z,13.77
2022-10-02T03:27:25.767Z,34.58
2022-10-02T03:29:58.774Z,30.52
2022-10-02T03:32:29.371Z,35.55
2022-10-02T03:34:58.085Z,44.92
2022-10-02T03:37:26.314Z,38.33
2022-10-02T03:39:54.115Z,22.92
2022-10-02T03:42:26.245Z,20.50
2022-10-02T03:44:53.775Z,23.02
2022-10-02T03:47:21.281Z,24.60
2022-10-02T03:49:50.260Z,23.08
2022-10-02T03:52:19.676Z,19.52
2022-10-02T03:54:47.308Z,25.33
2022-10-02T03:57:20.579Z,21.50
2022-10-02T03:59:54.934Z,21.67
2022-10-02T04:02:32.328Z,27.45
2022-10-02T04:05:10.864Z,21.00
2022-10-02T04:07:42.825Z,16.52
2022-10-02T04:10:32.000Z,24.40
2022-10-02T04:13:06.180Z,18.38
2022-10-02T04:15:43.192Z,17.50
2022-10-02T04:18:18.431Z,25.23
2022-10-02T04:20:53.367Z,33.78
2022-10-02T04:23:27.748Z,20.20
2022-10-02T04:26:01.460Z,30.00
2022-10-02T04:28:35.646Z,17.17
2022-10-02T04:31:03.670Z,15.60
2022-10-02T04:33:36.386Z,15.80
2022-10-02T04:36:16.844Z,16.85
2022-10-02T04:38:59.024Z,14.63
2022-10-02T04:41:57.866Z,13.45
2022-10-02T04:44:37.762Z,15.13
2022-10-02T04:47:24.183Z,14.95
2022-10-02T04:50:03.276Z,14.20
2022-10-02T04:52:53.868Z,26.20
2022-10-02T04:55:58.284Z,12.15
2022-10-02T04:58:40.319Z,12.48
2022-10-02T05:01:18.532Z,16.35
2022-10-02T05:04:10.736Z,16.40
2022-10-02T05:07:00.763Z,21.05
2022-10-02T05:09:34.268Z,19.17
2022-10-02T05:12:32.231Z,19.20
2022-10-02T05:15:21.615Z,20.77
2022-10-02T05:18:17.980Z,17.33
2022-10-02T05:21:01.149Z,19.80
2022-10-02T05:23:44.564Z,21.83
2022-10-02T05:26:38.977Z,15.88
2022-10-02T05:29:26.072Z,17.48
2022-10-02T05:32:05.795Z,24.63
2022-10-02T05:34:48.105Z,23.85
2022-10-02T05:37:29.171Z,22.65
2022-10-02T05:40:04.325Z,20.40
2022-10-02T05:42:42.310Z,26.00
2022-10-02T05:45:22.630Z,21.95
2022-10-02T05:47:51.751Z,23.63
2022-10-02T05:50:22.505Z,24.45
2022-10-02T05:52:57.174Z,23.73
2022-10-02T05:55:31.541Z,21.48
2022-10-02T05:58:04.848Z,19.55
2022-10-02T06:00:39.893Z,20.48
2022-10-02T06:03:15.441Z,20.75
2022-10-02T06:05:50.107Z,19.00
2022-10-02T06:08:24.655Z,14.13
2022-10-02T06:10:55.111Z,14.35
2022-10-02T06:13:28.464Z,16.83
2022-10-02T06:16:05.000Z,14.30
2022-10-02T06:18:34.870Z,16.92
2022-10-02T06:21:08.649Z,13.75
2022-10-02T06:23:40.578Z,150.05
2022-10-02T06:26:13.864Z,16.75
2022-10-02T06:28:45.250Z,14.80
2022-10-02T06:31:21.162Z,14.73
2022-10-02T06:33:49.107Z,14.80
2022-10-02T06:36:46.807Z,16.60
2022-10-02T06:39:35.368Z,16.40
2022-10-02T06:42:17.538Z,16.15
2022-10-02T06:44:57.745Z,17.30
2022-10-02T06:47:41.028Z,24.23
2022-10-02T06:50:27.480Z,14.75
2022-10-02T06:53:02.663Z,22.52
2022-10-02T06:55:45.307Z,16.55
2022-10-02T06:58:53.032Z,16.13
2022-10-02T07:01:32.549Z,22.95
2022-10-02T07:04:22.897Z,17.55
2022-10-02T07:07:05.787Z,18.05
2022-10-02T07:09:44.074Z,14.75
2022-10-02T07:12:24.841Z,21.08
2022-10-02T07:15:17.199Z,15.45
2022-10-02T07:17:57.315Z,23.27
2022-10-02T07:20:36.455Z,21.60
2022-10-02T07:23:31.695Z,17.92
2022-10-02T07:26:15.865Z,20.10
2022-10-02T07:28:54.033Z,15.82
2022-10-02T07:31:33.391Z,20.73
2022-10-02T07:34:21.072Z,20.05
2022-10-02T07:37:02.375Z,13.48
2022-10-02T07:39:43.836Z,13.20
2022-10-02T07:42:36.477Z,10.43
2022-10-02T07:45:21.079Z,16.45
2022-10-02T07:48:08.971Z,13.25
2022-10-02T07:50:45.846Z,10.27
2022-10-02T07:53:21.605Z,9.10
2022-10-02T07:55:53.181Z,11.85
2022-10-02T07:58:31.135Z,11.07
2022-10-02T08:01:02.367Z,9.70
2022-10-02T08:03:35.809Z,6.32
2022-10-02T08:06:06.398Z,9.63
2022-10-02T08:08:43.836Z,9.85
2022-10-02T08:11:16.837Z,8.32
2022-10-02T08:13:50.460Z,10.02
2022-10-02T08:16:23.367Z,8.77
2022-10-02T08:18:56.463Z,13.27
2022-10-02T08:21:27.088Z,15.85
2022-10-02T08:23:59.924Z,16.38
2022-10-02T08:26:35.413Z,13.25
2022-10-02T08:29:09.108Z,12.43
2022-10-02T08:31:36.717Z,16.85
2022-10-02T08:34:17.464Z,15.10
2022-10-02T08:37:14.381Z,11.98
2022-10-02T08:40:04.646Z,10.25
2022-10-02T08:43:08.401Z,15.95
2022-10-02T08:46:12.221Z,16.73
2022-10-02T08:49:17.989Z,12.18
2022-10-02T08:55:27.038Z,7.25
2022-10-02T08:58:38.376Z,22.83
2022-10-02T09:01:23.961Z,8.07
2022-10-02T09:04:38.171Z,15.32
2022-10-02T09:07:57.741Z,11.88
2022-10-02T09:10:49.797Z,6.53
2022-10-02T09:13:44.582Z,5.47
2022-10-02T09:16:16.221Z,17.02
2022-10-02T09:18:55.148Z,10.15
2022-10-02T09:21:42.279Z,6.28
2022-10-02T09:24:49.241Z,5.75
2022-10-02T09:27:47.298Z,13.32
2022-10-02T09:30:26.951Z,9.70
2022-10-02T09:33:42.466Z,13.82
2022-10-02T09:36:47.535Z,6.05
2022-10-02T09:40:06.259Z,13.82
2022-10-02T09:43:09.372Z,19.33
2022-10-02T09:46:06.706Z,20.25
2022-10-02T09:49:04.083Z,8.00
2022-10-02T09:52:03.887Z,9.73
2022-10-02T09:55:05.166Z,26.20
2022-10-02T09:58:17.323Z,11.88
2022-10-02T10:01:02.726Z,24.38
2022-10-02T10:03:47.402Z,31.92
2022-10-02T10:06:52.563Z,26.25
2022-10-02T10:10:07.308Z,14.45
2022-10-02T10:13:22.506Z,18.00
2022-10-02T10:16:23.794Z,25.10
2022-10-02T10:19:32.756Z,23.48
2022-10-02T10:22:27.562Z,13.25
2022-10-02T10:25:36.772Z,4.47
2022-10-02T10:28:37.857Z,29.05
2022-10-02T10:32:01.328Z,21.50
2022-10-02T10:34:59.336Z,28.35
2022-10-02T10:38:00.998Z,6.78
2022-10-02T10:40:38.012Z,39.00
2022-10-02T10:43:33.791Z,14.50
2022-10-02T10:46:37.552Z,4.70
2022-10-02T10:49:19.328Z,10.55
2022-10-02T10:51:53.844Z,15.95
2022-10-02T10:55:08.912Z,14.02
2022-10-02T10:57:51.894Z,33.63
2022-10-02T11:00:22.281Z,24.20
2022-10-02T11:02:57.699Z,11.25
2022-10-02T11:05:57.927Z,34.22
2022-10-02T11:09:01.071Z,18.13
2022-10-02T11:11:40.031Z,5.20
2022-10-02T11:14:21.801Z,3.97
2022-10-02T11:17:16.472Z,4.40
2022-10-02T11:20:00.178Z,4.88
2022-10-02T11:22:46.137Z,6.30
2022-10-02T11:25:26.879Z,5.22
2022-10-02T11:28:10.923Z,10.77
2022-10-02T11:30:54.937Z,5.38
2022-10-02T11:33:44.404Z,32.22
2022-10-02T11:36:41.555Z,6.25
2022-10-02T11:39:17.311Z,17.60
2022-10-02T11:42:06.617Z,12.57
2022-10-02T11:44:54.532Z,16.23
2022-10-02T11:47:56.556Z,4.20
2022-10-02T11:51:01.895Z,12.27
2022-10-02T11:53:49.069Z,8.07
2022-10-02T11:56:35.531Z,27.90
2022-10-02T11:59:22.963Z,25.35
2022-10-02T12:01:57.327Z,32.67
2022-10-02T12:04:41.820Z,13.98
2022-10-02T12:07:23.482Z,5.30
2022-10-02T12:10:29.373Z,22.60
2022-10-02T12:13:15.815Z,22.13
2022-10-02T12:15:56.167Z,12.52
2022-10-02T12:18:41.129Z,13.55
2022-10-02T12:21:41.959Z,29.33
2022-10-02T12:24:36.960Z,23.35
2022-10-02T12:27:14.009Z,25.48
2022-10-02T12:29:56.265Z,29.42
2022-10-02T12:32:49.639Z,29.30
2022-10-02T12:35:41.031Z,25.05
2022-10-02T12:38:20.173Z,33.78
2022-10-02T12:40:57.486Z,46.72
2022-10-02T12:44:00.677Z,46.60
2022-10-02T12:47:01.031Z,23.13
2022-10-02T12:49:45.501Z,23.08
2022-10-02T12:52:54.509Z,19.00
2022-10-02T12:55:53.581Z,14.73
2022-10-02T12:58:31.256Z,16.48
2022-10-02T13:01:36.604Z,14.63
2022-10-02T13:04:47.537Z,12.18
2022-10-02T13:07:52.048Z,9.18
2022-10-02T13:10:23.712Z,10.98
2022-10-02T13:13:06.751Z,20.13
2022-10-02T13:15:46.757Z,22.10
2022-10-02T13:18:43.229Z,22.65
2022-10-02T13:21:19.204Z,18.45
2022-10-02T13:23:56.640Z,11.52
2022-10-02T13:26:34.629Z,17.73
2022-10-02T13:29:29.840Z,9.75
2022-10-02T13:32:11.615Z,9.80
2022-10-02T13:34:51.680Z,12.75
2022-10-02T13:37:34.165Z,14.05
2022-10-02T13:40:20.878Z,9.90
2022-10-02T13:43:09.093Z,10.50
2022-10-02T13:45:44.137Z,11.82
2022-10-02T13:48:22.963Z,18.25
2022-10-02T13:51:00.238Z,16.83
2022-10-02T13:53:49.272Z,9.02
2022-10-02T13:56:32.895Z,10.73
2022-10-02T13:59:14.479Z,8.98
2022-10-02T14:01:53.489Z,11.40
2022-10-02T14:04:42.002Z,11.13
2022-10-02T14:07:29.347Z,16.13
2022-10-02T14:10:07.796Z,22.58
2022-10-02T14:12:47.906Z,16.98
2022-10-02T14:15:41.431Z,21.05
2022-10-02T14:18:40.049Z,19.15
2022-10-02T14:21:18.226Z,16.60
2022-10-02T14:24:03.988Z,21.55
2022-10-02T14:26:49.783Z,14.07
2022-10-02T14:29:32.540Z,19.27
2022-10-02T14:32:35.199Z,15.05
2022-10-02T14:35:30.960Z,18.63
2022-10-02T14:38:23.568Z,17.02
2022-10-02T14:40:54.007Z,15.93
2022-10-02T14:43:53.497Z,31.27
2022-10-02T14:46:35.917Z,33.25
2022-10-02T14:49:15.435Z,33.33
2022-10-02T14:52:07.880Z,40.40
2022-10-02T14:54:50.762Z,35.70
2022-10-02T14:57:36.392Z,26.13
2022-10-02T15:00:17.467Z,17.60
2022-10-02T15:03:24.968Z,20.75
2022-10-02T15:06:05.084Z,21.17
2022-10-02T15:08:36.709Z,14.57
2022-10-02T15:11:06.282Z,33.40
2022-10-02T15:13:44.109Z,15.52
2022-10-02T15:16:37.157Z,32.72
2022-10-02T15:19:15.336Z,29.95
2022-10-02T15:21:51.647Z,29.95
2022-10-02T15:24:31.202Z,35.00
2022-10-02T15:27:09.787Z,28.10
2022-10-02T15:29:50.301Z,31.55
2022-10-02T15:32:45.923Z,27.65
2022-10-02T15:35:29.172Z,27.00
2022-10-02T15:38:44.419Z,22.60
2022-10-02T15:41:38.734Z,25.15
2022-10-02T15:44:43.572Z,34.38
2022-10-02T15:47:25.437Z,29.10
2022-10-02T15:50:11.256Z,29.27
2022-10-02T15:52:48.239Z,33.28
2022-10-02T15:55:25.067Z,34.67
2022-10-02T15:58:11.628Z,34.50
2022-10-02T16:01:00.762Z,25.85
2022-10-02T16:03:35.056Z,23.80
2022-10-02T16:06:13.449Z,33.20
2022-10-02T16:09:14.253Z,32.05
2022-10-02T16:12:03.515Z,30.75
2022-10-02T16:14:42.087Z,27.90
2022-10-02T16:17:29.600Z,32.85
2022-10-02T16:20:25.679Z,34.88
2022-10-02T16:23:06.209Z,31.80
2022-10-02T16:25:53.323Z,33.80
2022-10-02T16:28:34.039Z,28.77
2022-10-02T16:31:18.330Z,32.15
2022-10-02T16:33:58.462Z,37.40
2022-10-02T16:36:32.913Z,20.05
2022-10-02T16:39:38.981Z,28.58
2022-10-02T16:42:21.055Z,13.00
2022-10-02T16:45:09.721Z,25.70
2022-10-02T16:47:48.536Z,28.73
2022-10-02T16:50:23.754Z,33.83
2022-10-02T16:52:57.440Z,31.08
2022-10-02T16:55:33.450Z,24.95
2022-10-02T16:58:11.999Z,35.55
2022-10-02T17:00:52.613Z,28.98
2022-10-02T17:03:28.265Z,14.57
2022-10-02T17:06:04.303Z,30.38
2022-10-02T17:08:39.331Z,31.27
2022-10-02T17:11:20.365Z,16.88
2022-10-02T17:14:06.187Z,14.10
2022-10-02T17:16:40.134Z,15.82
2022-10-02T17:19:21.251Z,20.60
2022-10-02T17:21:53.720Z,13.07
2022-10-02T17:24:32.544Z,15.25
2022-10-02T17:27:13.046Z,18.38
2022-10-02T17:29:47.901Z,11.30
2022-10-02T17:32:35.409Z,19.85
2022-10-02T17:35:03.137Z,11.35
2022-10-02T17:38:02.280Z,25.20
2022-10-02T17:40:36.906Z,24.02
2022-10-02T17:43:14.977Z,17.98
2022-10-02T17:45:48.886Z,27.33
2022-10-02T17:48:35.893Z,23.92
2022-10-02T17:51:47.131Z,13.02
2022-10-02T17:54:45.349Z,14.73
2022-10-02T17:57:30.984Z,14.90
2022-10-02T18:00:17.589Z,13.48
2022-10-02T18:03:16.720Z,23.23
2022-10-02T18:05:51.668Z,19.77
2022-10-02T18:08:42.859Z,25.10
2022-10-02T18:11:22.225Z,16.90
2022-10-02T18:14:03.939Z,13.93
2022-10-02T18:16:48.059Z,21.17
2022-10-02T18:19:37.811Z,19.42
2022-10-02T18:22:31.137Z,13.32
2022-10-02T18:25:21.044Z,23.05
2022-10-02T18:28:18.106Z,21.35
2022-10-02T18:30:50.047Z,14.77
2022-10-02T18:33:34.779Z,16.65
2022-10-02T18:36:18.839Z,23.83
2022-10-02T18:38:58.558Z,20.30
2022-10-02T18:41:53.742Z,26.45
2022-10-02T18:44:44.948Z,17.10
2022-10-02T18:47:26.282Z,16.15
2022-10-02T18:50:10.741Z,28.92
2022-10-02T18:52:53.745Z,29.33
2022-10-02T18:55:40.834Z,19.65
2022-10-02T18:58:22.547Z,31.10
2022-10-02T19:01:07.127Z,14.18
2022-10-02T19:03:51.641Z,18.38
2022-10-02T19:06:28.401Z,24.52
2022-10-02T19:09:12.163Z,30.35
2022-10-02T19:11:44.792Z,36.08
2022-10-02T19:14:15.687Z,31.52
2022-10-02T19:16:58.160Z,38.45
2022-10-02T19:19:25.820Z,29.13
2022-10-02T19:21:59.270Z,40.47
2022-10-02T19:24:29.947Z,38.38
2022-10-02T19:27:02.343Z,36.03
2022-10-02T19:29:36.708Z,34.28
2022-10-02T19:32:13.722Z,35.90
2022-10-02T19:34:43.915Z,41.95
2022-10-02T19:37:17.259Z,39.10
2022-10-02T19:39:51.911Z,42.50
2022-10-02T19:42:25.142Z,40.83
2022-10-02T19:44:56.797Z,39.78
2022-10-02T19:47:29.689Z,38.85
2022-10-02T19:50:00.914Z,27.13
2022-10-02T19:52:35.838Z,38.85
2022-10-02T19:55:16.250Z,34.97
2022-10-02T19:57:46.017Z,33.80
2022-10-02T20:00:17.655Z,27.48
2022-10-02T20:02:47.435Z,41.75
2022-10-02T20:05:23.310Z,39.10
2022-10-02T20:07:56.758Z,43.60
2022-10-02T20:10:32.624Z,44.55
2022-10-02T20:13:08.219Z,44.78
2022-10-02T20:16:00.093Z,43.28
2022-10-02T20:18:28.011Z,33.40
2022-10-02T20:21:02.609Z,32.35
2022-10-02T20:23:35.639Z,38.33
2022-10-02T20:26:08.812Z,41.63
2022-10-02T20:28:45.859Z,37.97
2022-10-02T20:31:18.746Z,22.92
2022-10-02T20:33:50.044Z,27.83
2022-10-02T20:36:21.470Z,20.77
2022-10-02T20:38:54.510Z,33.47
2022-10-02T20:41:27.289Z,37.38
2022-10-02T20:44:02.187Z,32.90
2022-10-02T20:46:59.801Z,37.47
2022-10-02T20:49:43.164Z,37.17
2022-10-02T20:52:35.174Z,36.83
2022-10-02T20:55:10.860Z,34.28
2022-10-02T20:58:01.951Z,26.90
2022-10-02T21:00:41.883Z,33.97
2022-10-02T21:03:31.845Z,35.80
2022-10-02T21:06:47.364Z,29.63
2022-10-02T21:09:38.693Z,30.00
2022-10-02T21:12:28.323Z,41.38
2022-10-02T21:15:21.073Z,44.08
2022-10-02T21:18:06.908Z,40.10
2022-10-02T21:20:58.351Z,33.42
2022-10-02T21:24:14.142Z,36.20
2022-10-02T21:27:26.977Z,36.72
2022-10-02T21:30:04.327Z,36.92
2022-10-02T21:32:42.775Z,44.15
2022-10-02T21:35:16.760Z,54.60
2022-10-02T21:38:00.861Z,47.28
2022-10-02T21:41:05.737Z,46.80
2022-10-02T21:44:04.683Z,43.47
2022-10-02T21:46:58.887Z,39.97
2022-10-02T21:49:54.301Z,47.63
2022-10-02T21:53:07.513Z,29.65
2022-10-02T21:56:00.670Z,26.67
2022-10-02T21:59:06.177Z,29.88
2022-10-02T22:02:07.711Z,30.58
2022-10-02T22:05:01.742Z,25.23
2022-10-02T22:07:36.404Z,40.50
2022-10-02T22:10:12.677Z,37.20
2022-10-02T22:12:53.916Z,36.78
2022-10-02T22:15:32.825Z,38.40
2022-10-02T22:18:05.940Z,38.45
2022-10-02T22:20:44.391Z,38.55
2022-10-02T22:23:27.979Z,46.33
2022-10-02T22:26:08.471Z,41.22
2022-10-02T22:28:43.839Z,43.45
2022-10-02T22:31:44.701Z,51.20
2022-10-02T22:34:28.328Z,66.78
2022-10-02T22:37:17.460Z,66.53
2022-10-02T22:39:53.054Z,56.75
2022-10-02T22:42:26.746Z,64.50
2022-10-02T22:45:00.601Z,65.68
2022-10-02T22:47:37.850Z,50.38
2022-10-02T22:50:12.446Z,67.80
2022-10-02T22:52:48.979Z,67.15
2022-10-02T22:55:22.485Z,70.13
2022-10-02T22:57:58.547Z,65.22
2022-10-02T23:00:29.163Z,59.28
2022-10-02T23:03:05.362Z,52.10
2022-10-02T23:05:40.355Z,52.78
2022-10-02T23:08:19.446Z,45.92
2022-10-02T23:10:52.433Z,47.08
2022-10-02T23:13:26.323Z,47.60
2022-10-02T23:16:00.971Z,51.30
2022-10-02T23:18:40.777Z,39.35
2022-10-02T23:21:30.367Z,49.13
2022-10-02T23:24:03.316Z,53.78
2022-10-02T23:26:36.664Z,50.40
2022-10-02T23:29:15.948Z,35.65
2022-10-02T23:31:53.846Z,49.50
2022-10-02T23:34:33.791Z,54.25
2022-10-02T23:37:10.857Z,54.70
2022-10-02T23:39:43.912Z,50.92
2022-10-02T23:42:16.620Z,48.40
2022-10-02T23:44:50.976Z,51.30
2022-10-02T23:47:27.026Z,54.83
2022-10-02T23:49:57.285Z,55.97
2022-10-02T23:52:46.117Z,59.85
2022-10-02T23:55:30.265Z,51.72
2022-10-02T23:58:13.668Z,56.80
